createdAt,value
2018-10-12T00:00:55.166Z,88.60
2018-10-12T00:03:23.391Z,88.50
2018-10-12T00:05:51.646Z,88.40
2018-10-12T00:08:19.863Z,88.40
2018-10-12T00:10:48.116Z,88.60
2018-10-12T00:13:16.380Z,89.10
2018-10-12T00:15:44.617Z,89.40
2018-10-12T00:18:12.828Z,89.70
2018-10-12T00:20:41.064Z,90.00
2018-10-12T00:23:09.302Z,90.20
2018-10-12T00:25:37.546Z,90.30
2018-10-12T00:28:05.900Z,90.40
2018-10-12T00:30:34.114Z,90.40
2018-10-12T00:33:02.327Z,90.50
2018-10-12T00:35:30.570Z,90.40
2018-10-12T00:37:58.800Z,90.50
2018-10-12T00:40:27.037Z,90.40
2018-10-12T00:42:55.308Z,90.30
2018-10-12T00:45:23.525Z,90.30
2018-10-12T00:47:57.140Z,90.30
2018-10-12T00:50:25.359Z,90.30
2018-10-12T00:52:53.569Z,90.30
2018-10-12T00:55:22.816Z,90.30
2018-10-12T00:57:51.058Z,90.30
2018-10-12T01:00:19.339Z,90.30
2018-10-12T01:02:47.580Z,90.20
2018-10-12T01:05:15.880Z,90.10
2018-10-12T01:07:44.115Z,90.00
2018-10-12T01:10:12.337Z,89.90
2018-10-12T01:12:40.539Z,89.70
2018-10-12T01:15:08.819Z,89.60
2018-10-12T01:17:37.610Z,89.60
2018-10-12T01:20:06.184Z,89.50
2018-10-12T01:22:34.439Z,89.30
2018-10-12T01:25:03.687Z,89.10
2018-10-12T01:27:32.165Z,88.90
2018-10-12T01:30:00.469Z,88.80
2018-10-12T01:32:34.079Z,88.60
2018-10-12T01:35:02.336Z,88.50
2018-10-12T01:37:30.558Z,88.40
2018-10-12T01:39:58.773Z,88.50
2018-10-12T01:42:27.009Z,88.80
2018-10-12T01:44:55.470Z,89.10
2018-10-12T01:47:23.719Z,89.30
2018-10-12T01:49:51.924Z,89.50
2018-10-12T01:52:20.131Z,89.80
2018-10-12T01:54:48.588Z,90.00
2018-10-12T01:57:16.805Z,90.00
2018-10-12T01:59:45.001Z,90.00
2018-10-12T02:02:13.195Z,90.10
2018-10-12T02:04:41.457Z,90.10
2018-10-12T02:07:09.651Z,90.10
2018-10-12T02:09:37.920Z,90.20
2018-10-12T02:12:06.584Z,90.20
2018-10-12T02:14:34.824Z,90.30
2018-10-12T02:17:03.063Z,90.30
2018-10-12T02:19:31.323Z,90.20
2018-10-12T02:21:59.557Z,90.20
2018-10-12T02:24:28.016Z,90.20
2018-10-12T02:26:56.265Z,90.20
2018-10-12T02:29:24.439Z,90.20
2018-10-12T02:31:52.666Z,90.30
2018-10-12T02:34:20.852Z,90.30
2018-10-12T02:36:49.096Z,90.40
2018-10-12T02:39:17.291Z,90.40
2018-10-12T02:41:45.508Z,90.50
2018-10-12T02:44:13.711Z,90.50
2018-10-12T02:46:41.986Z,90.50
2018-10-12T02:49:10.232Z,90.90
2018-10-12T02:51:38.510Z,91.00
2018-10-12T02:54:06.929Z,90.80
2018-10-12T02:56:35.122Z,90.90
2018-10-12T02:59:03.329Z,91.20
2018-10-12T03:01:31.551Z,91.40
2018-10-12T03:03:59.818Z,91.60
2018-10-12T03:06:28.644Z,91.90
2018-10-12T03:08:57.690Z,91.90
2018-10-12T03:11:26.649Z,92.20
2018-10-12T03:13:54.883Z,92.40
2018-10-12T03:16:23.083Z,92.90
2018-10-12T03:18:51.295Z,93.20
2018-10-12T03:21:19.512Z,93.40
2018-10-12T03:23:47.775Z,93.60
2018-10-12T03:26:15.989Z,93.70
2018-10-12T03:28:44.203Z,93.90
2018-10-12T03:31:12.445Z,94.10
2018-10-12T03:33:40.710Z,94.40
2018-10-12T03:36:08.919Z,94.60
2018-10-12T03:38:37.136Z,94.80
2018-10-12T03:41:05.363Z,95.10
2018-10-12T03:43:33.608Z,95.30
2018-10-12T03:46:01.886Z,95.60
2018-10-12T03:48:30.087Z,95.70
2018-10-12T03:50:58.336Z,96.00
2018-10-12T03:53:26.691Z,96.20
2018-10-12T03:55:54.903Z,96.50
2018-10-12T03:58:23.143Z,96.70
2018-10-12T04:00:51.399Z,96.90
2018-10-12T04:03:19.595Z,97.10
2018-10-12T04:05:47.803Z,97.30
2018-10-12T04:08:16.048Z,97.50
2018-10-12T04:10:44.239Z,97.70
2018-10-12T04:13:12.428Z,97.90
2018-10-12T04:15:40.805Z,98.10
2018-10-12T04:18:09.004Z,98.20
2018-10-12T04:20:37.215Z,98.40
2018-10-12T04:23:05.488Z,98.60
2018-10-12T04:25:33.685Z,98.80
2018-10-12T04:28:01.930Z,98.90
2018-10-12T04:30:30.183Z,99.20
2018-10-12T04:32:58.381Z,99.30
2018-10-12T04:35:26.632Z,99.40
2018-10-12T04:37:54.875Z,99.50
2018-10-12T04:41:27.932Z,99.70
2018-10-12T04:44:01.736Z,99.90
2018-10-12T04:46:40.075Z,99.90
2018-10-12T04:49:09.705Z,99.90
2018-10-12T04:51:45.997Z,99.90
2018-10-12T04:54:14.257Z,99.90
2018-10-12T04:56:42.447Z,99.90
2018-10-12T04:59:10.677Z,99.90
2018-10-12T05:01:38.928Z,99.90
2018-10-12T05:04:07.393Z,99.90
2018-10-12T05:06:35.604Z,99.90
2018-10-12T05:09:05.162Z,99.90
2018-10-12T05:11:33.401Z,99.90
2018-10-12T05:14:01.657Z,99.90
2018-10-12T05:16:29.907Z,99.90
2018-10-12T05:18:58.115Z,99.90
2018-10-12T05:21:26.369Z,99.90
2018-10-12T05:23:54.622Z,99.90
2018-10-12T05:26:22.860Z,99.90
2018-10-12T05:28:51.068Z,99.90
2018-10-12T05:31:19.351Z,99.90
2018-10-12T05:33:47.691Z,99.90
2018-10-12T05:36:15.926Z,99.90
2018-10-12T05:38:44.202Z,99.90
2018-10-12T05:41:12.464Z,99.90
2018-10-12T05:43:40.751Z,99.90
2018-10-12T05:46:08.927Z,99.90
2018-10-12T05:48:48.683Z,99.90
2018-10-12T05:51:17.792Z,99.90
2018-10-12T05:53:46.592Z,99.90
2018-10-12T05:56:17.206Z,99.90
2018-10-12T05:58:45.871Z,99.90
2018-10-12T06:01:14.149Z,99.90
2018-10-12T06:03:42.404Z,99.90
2018-10-12T06:06:10.662Z,99.90
2018-10-12T06:08:39.724Z,99.90
2018-10-12T06:11:08.001Z,99.90
2018-10-12T06:13:36.211Z,99.90
2018-10-12T06:16:04.459Z,99.90
2018-10-12T06:18:32.655Z,99.90
2018-10-12T06:21:01.134Z,99.90
2018-10-12T06:23:29.372Z,99.90
2018-10-12T06:25:57.564Z,99.90
2018-10-12T06:28:25.765Z,99.90
2018-10-12T06:30:53.990Z,99.90
2018-10-12T06:33:22.186Z,99.90
2018-10-12T06:35:50.407Z,99.90
2018-10-12T06:38:18.625Z,99.90
2018-10-12T06:40:46.825Z,99.90
2018-10-12T06:43:15.080Z,99.90
2018-10-12T06:45:43.355Z,99.90
2018-10-12T06:48:11.552Z,99.90
2018-10-12T06:50:40.785Z,99.90
2018-10-12T06:53:09.024Z,99.90
2018-10-12T06:55:37.459Z,99.90
2018-10-12T06:58:05.683Z,99.90
2018-10-12T07:00:33.912Z,99.90
2018-10-12T07:03:02.355Z,99.90
2018-10-12T07:05:30.641Z,99.90
2018-10-12T07:07:58.860Z,99.90
2018-10-12T07:10:27.091Z,99.90
2018-10-12T07:12:55.397Z,99.90
2018-10-12T07:15:23.626Z,99.90
2018-10-12T07:17:51.839Z,99.90
2018-10-12T07:20:20.057Z,99.90
2018-10-12T07:22:48.303Z,99.90
2018-10-12T07:25:16.527Z,99.90
2018-10-12T07:27:44.761Z,99.90
2018-10-12T07:30:12.960Z,99.90
2018-10-12T07:32:41.169Z,99.90
2018-10-12T07:35:09.399Z,99.90
2018-10-12T07:37:37.738Z,99.90
2018-10-12T07:40:06.343Z,99.90
2018-10-12T07:42:34.635Z,99.90
2018-10-12T07:45:02.896Z,99.90
2018-10-12T07:47:31.140Z,99.90
2018-10-12T07:49:59.317Z,99.90
2018-10-12T07:52:27.556Z,99.90
2018-10-12T07:54:56.028Z,99.90
2018-10-12T07:57:29.236Z,99.90
2018-10-12T07:59:57.935Z,99.90
2018-10-12T08:02:26.090Z,99.90
2018-10-12T08:04:54.396Z,99.90
2018-10-12T08:07:22.632Z,99.90
2018-10-12T08:09:50.892Z,99.90
2018-10-12T08:12:19.091Z,99.90
2018-10-12T08:14:47.340Z,99.90
2018-10-12T08:17:15.541Z,99.90
2018-10-12T08:19:43.949Z,99.90
2018-10-12T08:22:12.250Z,99.90
2018-10-12T08:24:40.520Z,99.90
2018-10-12T08:27:08.769Z,99.90
2018-10-12T08:29:37.611Z,99.90
2018-10-12T08:32:05.830Z,99.90
2018-10-12T08:34:34.051Z,99.90
2018-10-12T08:37:02.279Z,99.90
2018-10-12T08:39:30.509Z,99.90
2018-10-12T08:41:58.844Z,99.90
2018-10-12T08:44:26.974Z,99.90
2018-10-12T08:46:55.217Z,99.90
2018-10-12T08:49:23.436Z,99.90
2018-10-12T08:51:51.676Z,99.90
2018-10-12T08:54:20.073Z,99.90
2018-10-12T08:56:48.295Z,99.90
2018-10-12T08:59:16.546Z,99.90
2018-10-12T09:01:44.770Z,99.60
2018-10-12T09:04:13.106Z,99.20
2018-10-12T09:06:41.321Z,99.00
2018-10-12T09:09:10.497Z,98.80
2018-10-12T09:11:39.678Z,98.70
2018-10-12T09:14:07.998Z,98.30
2018-10-12T09:16:36.256Z,98.10
2018-10-12T09:19:04.681Z,98.00
2018-10-12T09:21:32.934Z,97.70
2018-10-12T09:24:01.339Z,97.70
2018-10-12T09:26:29.788Z,97.60
2018-10-12T09:28:58.018Z,97.30
2018-10-12T09:31:26.360Z,97.10
2018-10-12T09:33:54.779Z,96.90
2018-10-12T09:36:23.182Z,96.70
2018-10-12T09:38:51.380Z,96.60
2018-10-12T09:41:19.660Z,96.40
2018-10-12T09:43:47.872Z,96.40
2018-10-12T09:46:16.112Z,96.30
2018-10-12T09:48:44.388Z,96.00
2018-10-12T09:51:12.606Z,95.90
2018-10-12T09:53:40.842Z,95.70
2018-10-12T09:56:09.144Z,95.40
2018-10-12T09:58:37.361Z,95.20
2018-10-12T10:01:11.036Z,95.10
2018-10-12T10:04:47.112Z,94.90
2018-10-12T10:07:15.340Z,94.70
2018-10-12T10:09:43.588Z,94.60
2018-10-12T10:12:11.894Z,94.20
2018-10-12T10:14:40.219Z,93.80
2018-10-12T10:17:08.523Z,93.60
2018-10-12T10:19:36.760Z,93.30
2018-10-12T10:22:05.057Z,92.90
2018-10-12T10:24:33.346Z,92.60
2018-10-12T10:27:01.602Z,92.50
2018-10-12T10:29:29.800Z,92.40
2018-10-12T10:31:58.083Z,92.20
2018-10-12T10:34:26.296Z,92.00
2018-10-12T10:36:54.519Z,91.70
2018-10-12T10:39:22.794Z,91.20
2018-10-12T10:41:50.979Z,90.90
2018-10-12T10:44:19.203Z,90.40
2018-10-12T10:46:47.396Z,90.30
2018-10-12T10:49:15.644Z,89.40
2018-10-12T10:51:43.851Z,88.70
2018-10-12T10:54:12.060Z,87.30
2018-10-12T10:56:40.251Z,86.80
2018-10-12T10:59:08.464Z,86.20
2018-10-12T11:01:36.677Z,84.90
2018-10-12T11:04:04.891Z,84.00
2018-10-12T11:06:33.105Z,84.50
2018-10-12T11:09:01.307Z,83.90
2018-10-12T11:11:29.522Z,83.70
2018-10-12T11:13:58.986Z,82.80
2018-10-12T11:16:27.191Z,82.10
2018-10-12T11:18:55.480Z,81.80
2018-10-12T11:21:23.683Z,81.50
2018-10-12T11:23:51.935Z,80.80
2018-10-12T11:26:20.198Z,80.50
2018-10-12T11:28:48.435Z,80.20
2018-10-12T11:31:16.667Z,79.70
2018-10-12T11:33:44.911Z,79.00
2018-10-12T11:36:13.131Z,78.80
2018-10-12T11:38:41.320Z,78.50
2018-10-12T11:41:09.581Z,78.30
2018-10-12T11:43:38.959Z,77.80
2018-10-12T11:46:07.248Z,77.70
2018-10-12T11:48:35.451Z,77.70
2018-10-12T11:51:03.882Z,77.30
2018-10-12T11:53:32.139Z,77.60
2018-10-12T11:56:00.375Z,77.90
2018-10-12T11:58:28.620Z,77.20
2018-10-12T12:00:56.898Z,77.30
2018-10-12T12:03:25.073Z,77.00
2018-10-12T12:05:53.409Z,75.50
2018-10-12T12:08:21.612Z,75.00
2018-10-12T12:10:49.862Z,74.60
2018-10-12T12:13:18.100Z,74.50
2018-10-12T12:15:46.335Z,73.80
2018-10-12T12:18:14.571Z,72.70
2018-10-12T12:20:42.840Z,72.20
2018-10-12T12:23:11.063Z,72.20
2018-10-12T12:25:39.295Z,71.90
2018-10-12T12:28:07.535Z,71.50
2018-10-12T12:30:35.749Z,71.40
2018-10-12T12:33:04.016Z,70.60
2018-10-12T12:35:32.561Z,69.90
2018-10-12T12:38:00.513Z,69.90
2018-10-12T12:40:28.710Z,69.10
2018-10-12T12:42:56.951Z,68.80
2018-10-12T12:45:25.140Z,68.80
2018-10-12T12:47:53.513Z,67.40
2018-10-12T12:50:21.548Z,66.60
2018-10-12T12:52:49.849Z,66.30
2018-10-12T12:55:18.052Z,65.20
2018-10-12T12:57:46.278Z,64.50
2018-10-12T13:00:14.670Z,63.60
2018-10-12T13:02:42.759Z,63.40
2018-10-12T13:05:11.032Z,63.10
2018-10-12T13:07:39.257Z,62.20
2018-10-12T13:10:07.484Z,61.60
2018-10-12T13:12:35.828Z,61.10
2018-10-12T13:15:04.050Z,59.80
2018-10-12T13:17:32.327Z,59.30
2018-10-12T13:20:00.583Z,58.90
2018-10-12T13:22:28.837Z,56.60
2018-10-12T13:24:57.158Z,54.60
2018-10-12T13:27:25.400Z,52.00
2018-10-12T13:29:53.665Z,49.60
2018-10-12T13:32:21.851Z,46.50
2018-10-12T13:34:50.148Z,45.70
2018-10-12T13:37:18.392Z,44.10
2018-10-12T13:39:46.670Z,42.60
2018-10-12T13:42:14.824Z,42.00
2018-10-12T13:44:43.081Z,40.90
2018-10-12T13:47:11.307Z,40.10
2018-10-12T13:49:39.494Z,39.30
2018-10-12T13:52:07.773Z,39.00
2018-10-12T13:54:35.971Z,39.40
2018-10-12T13:57:04.180Z,39.20
2018-10-12T13:59:32.503Z,38.60
2018-10-12T14:02:00.850Z,38.00
2018-10-12T14:04:29.761Z,37.20
2018-10-12T14:06:57.987Z,36.40
2018-10-12T14:09:27.099Z,35.90
2018-10-12T14:11:55.389Z,35.10
2018-10-12T14:14:23.620Z,35.80
2018-10-12T14:16:51.828Z,35.60
2018-10-12T14:19:20.444Z,35.50
2018-10-12T14:21:48.325Z,35.30
2018-10-12T14:24:16.617Z,35.20
2018-10-12T14:26:44.889Z,35.00
2018-10-12T14:29:14.092Z,34.60
2018-10-12T14:31:42.411Z,33.60
2018-10-12T14:34:10.754Z,33.60
2018-10-12T14:36:38.951Z,33.10
2018-10-12T14:39:08.689Z,32.90
2018-10-12T14:41:36.999Z,32.10
2018-10-12T14:44:05.504Z,31.90
2018-10-12T14:46:33.548Z,31.40
2018-10-12T14:49:01.800Z,30.90
2018-10-12T14:51:30.453Z,31.20
2018-10-12T14:53:58.859Z,32.30
2018-10-12T14:56:27.133Z,33.30
2018-10-12T14:58:55.413Z,34.00
2018-10-12T15:01:23.567Z,34.50
2018-10-12T15:03:51.943Z,34.30
2018-10-12T15:06:20.143Z,34.40
2018-10-12T15:08:48.328Z,34.60
2018-10-12T15:11:16.911Z,34.60
2018-10-12T15:13:45.119Z,34.90
2018-10-12T15:16:13.299Z,35.00
2018-10-12T15:18:41.511Z,35.20
2018-10-12T15:21:09.853Z,36.00
2018-10-12T15:23:37.964Z,37.00
2018-10-12T15:26:06.644Z,38.20
2018-10-12T15:28:34.922Z,39.10
2018-10-12T15:31:03.231Z,39.90
2018-10-12T15:33:31.624Z,40.40
2018-10-12T15:35:59.852Z,41.30
2018-10-12T15:38:28.130Z,42.00
2018-10-12T15:40:56.291Z,42.80
2018-10-12T15:43:24.569Z,43.50
2018-10-12T15:45:52.763Z,44.10
2018-10-12T15:48:20.947Z,44.70
2018-10-12T15:50:49.158Z,45.30
2018-10-12T15:53:17.408Z,45.80
2018-10-12T15:55:45.775Z,46.10
2018-10-12T15:58:14.027Z,46.70
2018-10-12T16:00:42.248Z,46.90
2018-10-12T16:03:10.607Z,47.20
2018-10-12T16:05:38.827Z,47.80
2018-10-12T16:08:07.115Z,48.20
2018-10-12T16:10:35.350Z,48.40
2018-10-12T16:13:03.826Z,48.80
2018-10-12T16:15:32.040Z,49.10
2018-10-12T16:18:00.320Z,49.50
2018-10-12T16:20:28.551Z,49.80
2018-10-12T16:22:56.759Z,50.10
2018-10-12T16:26:14.994Z,50.50
2018-10-12T16:28:43.246Z,51.30
2018-10-12T16:31:11.521Z,51.20
2018-10-12T16:33:46.444Z,51.70
2018-10-12T16:36:14.843Z,52.10
2018-10-12T16:38:42.999Z,52.50
2018-10-12T16:41:11.259Z,52.70
2018-10-12T16:43:39.491Z,53.10
2018-10-12T16:46:07.804Z,53.40
2018-10-12T16:48:36.019Z,53.80
2018-10-12T16:51:04.200Z,54.10
2018-10-12T16:53:33.576Z,54.50
2018-10-12T16:56:01.777Z,54.80
2018-10-12T16:58:30.407Z,55.00
2018-10-12T17:00:58.699Z,55.30
2018-10-12T17:03:26.908Z,55.60
2018-10-12T17:10:30.294Z,54.50
2018-10-12T17:12:58.551Z,56.00
2018-10-12T17:15:27.070Z,56.90
2018-10-12T17:17:56.601Z,57.40
2018-10-12T17:20:25.411Z,57.60
2018-10-12T17:22:54.228Z,57.90
2018-10-12T17:25:23.540Z,58.10
2018-10-12T17:27:52.632Z,58.20
2018-10-12T17:30:21.215Z,58.30
2018-10-12T17:32:49.907Z,58.40
2018-10-12T17:35:18.231Z,58.70
2018-10-12T17:37:46.799Z,59.00
2018-10-12T17:40:15.290Z,59.20
2018-10-12T17:42:43.727Z,59.50
2018-10-12T17:45:12.852Z,59.30
2018-10-12T17:47:41.979Z,59.50
2018-10-12T17:50:10.215Z,59.80
2018-10-12T17:52:38.739Z,60.10
2018-10-12T17:55:07.308Z,60.30
2018-10-12T17:57:35.539Z,60.50
2018-10-12T18:00:03.848Z,60.70
2018-10-12T18:02:32.070Z,60.90
2018-10-12T18:05:00.247Z,61.00
2018-10-12T18:07:28.517Z,61.20
2018-10-12T18:09:56.782Z,61.40
2018-10-12T18:12:25.012Z,61.70
2018-10-12T18:14:53.384Z,61.90
2018-10-12T18:17:21.632Z,62.10
2018-10-12T18:19:50.091Z,62.40
2018-10-12T18:22:18.307Z,62.80
2018-10-12T18:24:46.509Z,63.10
2018-10-12T18:27:14.812Z,63.40
2018-10-12T18:29:43.026Z,63.70
2018-10-12T18:32:11.195Z,63.90
2018-10-12T18:34:39.454Z,64.10
2018-10-12T18:37:08.869Z,64.20
2018-10-12T18:39:37.080Z,64.40
2018-10-12T18:42:05.273Z,64.60
2018-10-12T18:44:35.340Z,64.80
2018-10-12T18:47:04.301Z,65.00
2018-10-12T18:49:32.868Z,65.20
2018-10-12T18:52:01.498Z,65.40
2018-10-12T18:54:30.118Z,65.70
2018-10-12T18:56:58.496Z,65.90
2018-10-12T18:59:26.937Z,66.00
2018-10-12T19:01:55.886Z,66.20
2018-10-12T19:04:24.995Z,66.20
2018-10-12T19:06:53.374Z,66.40
2018-10-12T19:09:22.038Z,66.50
2018-10-12T19:11:50.272Z,66.50
2018-10-12T19:14:18.542Z,66.70
2018-10-12T19:16:47.107Z,66.70
2018-10-12T19:19:15.731Z,66.90
2018-10-12T19:21:44.032Z,67.10
2018-10-12T19:24:12.527Z,67.00
2018-10-12T19:26:40.854Z,67.20
2018-10-12T19:29:09.083Z,67.40
2018-10-12T19:31:37.583Z,67.70
2018-10-12T19:34:05.914Z,68.00
2018-10-12T19:36:34.402Z,68.20
2018-10-12T19:39:02.719Z,68.30
2018-10-12T19:41:31.207Z,68.60
2018-10-12T19:43:59.998Z,68.60
2018-10-12T19:46:28.566Z,68.80
2018-10-12T19:48:57.062Z,69.20
2018-10-12T19:51:25.926Z,69.40
2018-10-12T19:53:54.878Z,69.60
2018-10-12T19:56:23.378Z,69.90
2018-10-12T19:58:51.938Z,70.00
2018-10-12T20:01:20.167Z,70.10
2018-10-12T20:03:49.603Z,70.20
2018-10-12T20:06:18.229Z,70.40
2018-10-12T20:08:46.761Z,70.70
2018-10-12T20:11:15.194Z,71.00
2018-10-12T20:13:43.906Z,71.20
2018-10-12T20:16:12.131Z,71.30
2018-10-12T20:18:40.406Z,71.50
2018-10-12T20:21:08.603Z,71.50
2018-10-12T20:23:37.048Z,71.80
2018-10-12T20:26:05.285Z,72.00
2018-10-12T20:28:33.487Z,72.00
2018-10-12T20:31:01.786Z,72.50
2018-10-12T20:33:29.979Z,72.70
2018-10-12T20:35:58.154Z,72.70
2018-10-12T20:38:26.528Z,72.90
2018-10-12T20:40:54.748Z,72.90
2018-10-12T20:43:23.167Z,73.00
2018-10-12T20:45:51.359Z,73.10
2018-10-12T20:48:19.664Z,73.20
2018-10-12T20:50:47.971Z,73.20
2018-10-12T20:53:16.075Z,73.30
2018-10-12T20:55:44.357Z,73.50
2018-10-12T20:58:16.645Z,73.70
2018-10-12T21:00:45.479Z,73.80
2018-10-12T21:03:13.728Z,73.80
2018-10-12T21:05:42.436Z,73.80
2018-10-12T21:08:10.684Z,74.00
2018-10-12T21:10:38.943Z,74.10
2018-10-12T21:13:07.171Z,74.30
2018-10-12T21:15:35.431Z,74.40
2018-10-12T21:18:03.732Z,74.50
2018-10-12T21:20:32.138Z,74.40
2018-10-12T21:23:00.338Z,74.60
2018-10-12T21:25:28.575Z,74.80
2018-10-12T21:27:56.783Z,74.90
2018-10-12T21:30:25.011Z,75.00
2018-10-12T21:32:53.244Z,75.20
2018-10-12T21:35:21.477Z,75.30
2018-10-12T21:37:49.914Z,75.50
2018-10-12T21:40:18.245Z,75.60
2018-10-12T21:42:46.403Z,75.70
2018-10-12T21:45:14.687Z,75.70
2018-10-12T21:47:42.907Z,75.80
2018-10-12T21:50:11.072Z,75.70
2018-10-12T21:52:40.012Z,76.00
2018-10-12T21:55:08.252Z,77.00
2018-10-12T21:57:36.432Z,76.30
2018-10-12T22:00:05.597Z,76.50
2018-10-12T22:02:33.735Z,76.60
2018-10-12T22:05:02.102Z,76.90
2018-10-12T22:07:30.411Z,77.00
2018-10-12T22:09:58.802Z,77.30
2018-10-12T22:12:27.387Z,77.40
2018-10-12T22:14:55.600Z,77.70
2018-10-12T22:17:23.827Z,77.90
2018-10-12T22:19:52.065Z,77.90
2018-10-12T22:22:20.320Z,78.00
2018-10-12T22:24:48.922Z,78.20
2018-10-12T22:27:17.159Z,78.40
2018-10-12T22:29:45.385Z,78.60
2018-10-12T22:32:13.634Z,78.60
2018-10-12T22:34:41.999Z,78.70
2018-10-12T22:37:10.243Z,78.90
2018-10-12T22:39:41.643Z,78.90
2018-10-12T22:42:10.415Z,79.20
2018-10-12T22:44:39.991Z,79.30
2018-10-12T22:47:08.811Z,79.30
2018-10-12T22:49:37.493Z,79.60
2018-10-12T22:52:05.762Z,79.90
2018-10-12T22:54:33.962Z,79.90
2018-10-12T22:57:02.244Z,79.80
2018-10-12T22:59:30.570Z,79.90
2018-10-12T23:01:58.843Z,79.80
2018-10-12T23:04:27.255Z,80.00
2018-10-12T23:06:55.450Z,80.00
2018-10-12T23:09:23.768Z,80.00
2018-10-12T23:11:51.996Z,80.00
2018-10-12T23:14:20.235Z,79.90
2018-10-12T23:16:48.452Z,80.00
2018-10-12T23:19:16.688Z,80.00
2018-10-12T23:21:44.893Z,80.00
2018-10-12T23:24:13.215Z,80.20
2018-10-12T23:26:42.512Z,80.30
2018-10-12T23:29:11.714Z,80.30
2018-10-12T23:31:41.028Z,80.30
2018-10-12T23:34:10.607Z,80.40
2018-10-12T23:36:39.960Z,80.50
2018-10-12T23:39:10.242Z,80.40
2018-10-12T23:41:38.584Z,80.40
2018-10-12T23:44:06.847Z,80.40
2018-10-12T23:46:35.095Z,80.50
2018-10-12T23:49:03.369Z,80.60
2018-10-12T23:51:31.588Z,80.70
2018-10-12T23:53:59.904Z,80.70
2018-10-12T23:56:28.115Z,81.50
2018-10-12T23:58:56.331Z,80.80
